Time;durP1;ratioP1;P1;durP2;ratioP2;P2;SDS_P1;SDS_P2;PMS_P1;PMS_P2;Temp;Humidity;BMP_temperature;BMP_pressure;BME280_temperature;BME280_humidity;BME280_pressure;Samples;Min_cycle;Max_cycle;Signal;HPM_P1;HPM_P2
2021/05/13 00:01:44;;;;;;;;;;;;;;;20.72;40.98;99263.25;4431782;32;19974;-48
2021/05/13 00:04:10;;;;;;;;;;;;;;;20.73;40.87;99270.28;4426704;32;19980;-47
2021/05/13 00:06:36;;;;;;;;;;;;;;;20.73;40.92;99265.00;4417446;32;19953;-49
2021/05/13 00:09:02;;;;;;;;;;;;;;;20.69;41.00;99258.00;4418027;32;19967;-46
2021/05/13 00:11:30;;;;;;;;;;;;;;;20.68;41.05;99256.22;4416435;32;20459;-49
2021/05/13 00:13:56;;;;;;;;;;;;;;;20.74;40.88;99261.47;4419612;32;19954;-46
2021/05/13 00:16:28;;;;;;;;;;;;;;;20.67;40.98;99256.22;4431369;32;20134;-47
2021/05/13 00:18:53;;;;;;;;;;;;;;;20.66;41.06;99263.28;4431865;32;20318;-49
2021/05/13 00:21:19;;;;;;;;;;;;;;;20.70;40.91;99259.75;4431548;32;19966;-52
2021/05/13 00:23:45;;;;;;;;;;;;;;;20.68;40.98;99264.16;4431696;32;19946;-47
2021/05/13 00:26:11;;;;;;;;;;;;;;;20.62;41.04;99256.25;4423220;32;19957;-48
2021/05/13 00:28:37;;;;;;;;;;;;;;;20.66;41.04;99263.28;4430942;32;19958;-49
2021/05/13 00:31:03;;;;;;;;;;;;;;;20.62;41.08;99257.16;4416514;32;19965;-44
2021/05/13 00:33:29;;;;;;;;;;;;;;;20.66;40.34;99257.13;4416770;32;19992;-49
2021/05/13 00:35:55;;;;;;;;;;;;;;;20.63;41.02;99250.06;4429441;32;20026;-50
2021/05/13 00:38:20;;;;;;;;;;;;;;;20.59;41.13;99248.34;4430948;32;19954;-47
2021/05/13 00:40:46;;;;;;;;;;;;;;;20.55;40.70;99246.59;4419759;32;19961;-51
2021/05/13 00:43:12;;;;;;;;;;;;;;;20.59;40.97;99251.00;4415687;32;20260;-47
2021/05/13 00:45:39;;;;;;;;;;;;;;;20.55;40.93;99249.25;4426858;32;19955;-49
2021/05/13 00:48:14;;;;;;;;;;;;;;;20.54;41.11;99253.66;4431176;32;20447;-49
2021/05/13 00:50:40;;;;;;;;;;;;;;;20.55;41.06;99246.59;4421769;32;20378;-48
2021/05/13 00:53:06;;;;;;;;;;;;;;;20.50;41.16;99247.50;4415876;32;19951;-49
2021/05/13 00:55:31;;;;;;;;;;;;;;;20.61;40.74;99252.72;4424986;32;19953;-46
2021/05/13 00:57:57;;;;;;;;;;;;;;;20.51;40.93;99248.41;4430955;32;20351;-49
2021/05/13 01:03:05;;;;;;;;;;;;;;;20.52;40.77;99244.88;4429285;32;19989;-51
2021/05/13 01:05:30;;;;;;;;;;;;;;;20.52;40.32;99239.59;4430604;32;19953;-49
2021/05/13 01:07:57;;;;;;;;;;;;;;;20.52;40.98;99238.69;4429543;32;19960;-48
2021/05/13 01:10:24;;;;;;;;;;;;;;;20.52;40.98;99236.94;4422714;32;20072;-48
2021/05/13 01:12:50;;;;;;;;;;;;;;;20.48;40.82;99228.12;4415497;32;19956;-46
2021/05/13 01:15:25;;;;;;;;;;;;;;;20.47;40.06;99226.38;4420923;32;20248;-49
2021/05/13 01:20:55;;;;;;;;;;;;;;;20.45;40.90;99217.59;4360142;32;19977;-47
2021/05/13 01:23:21;;;;;;;;;;;;;;;20.41;40.89;99215.81;4367894;32;19967;-46
2021/05/13 01:25:49;;;;;;;;;;;;;;;20.42;41.09;99216.72;4387927;32;20328;-50
2021/05/13 01:28:15;;;;;;;;;;;;;;;20.45;40.74;99214.06;4419630;32;19976;-44
2021/05/13 01:30:41;;;;;;;;;;;;;;;20.44;40.93;99212.28;4409938;32;19951;-45
2021/05/13 01:33:08;;;;;;;;;;;;;;;20.46;40.40;99207.87;4399634;32;20305;-48
2021/05/13 01:35:34;;;;;;;;;;;;;;;20.42;40.65;99207.00;4402783;32;20389;-45
2021/05/13 01:38:00;;;;;;;;;;;;;;;20.39;40.87;99206.16;4402488;32;20002;-49
2021/05/13 01:40:26;;;;;;;;;;;;;;;20.44;40.65;99199.97;4406488;32;20412;-49
2021/05/13 01:42:52;;;;;;;;;;;;;;;20.42;40.82;99193.78;4418522;32;19968;-46
2021/05/13 01:45:18;;;;;;;;;;;;;;;20.42;41.07;99195.56;4416737;32;20005;-48
2021/05/13 01:47:44;;;;;;;;;;;;;;;20.41;40.97;99199.97;4403197;32;20399;-46
2021/05/13 01:50:09;;;;;;;;;;;;;;;20.42;40.73;99196.44;4403204;32;19950;-47
2021/05/13 01:52:35;;;;;;;;;;;;;;;20.48;40.66;99198.16;4417748;32;20256;-49
2021/05/13 01:55:01;;;;;;;;;;;;;;;20.39;41.08;99196.47;4419127;32;19958;-48
2021/05/13 01:57:27;;;;;;;;;;;;;;;20.38;41.05;99207.06;4403602;32;19959;-44
2021/05/13 01:59:53;;;;;;;;;;;;;;;20.43;41.01;99202.59;4403512;32;19959;-48
2021/05/13 02:02:21;;;;;;;;;;;;;;;20.43;40.72;99195.53;4416656;32;20294;-50
2021/05/13 02:04:47;;;;;;;;;;;;;;;20.38;40.97;99200.00;4418974;32;20317;-49
2021/05/13 02:07:13;;;;;;;;;;;;;;;20.41;40.45;99202.59;4405756;32;19996;-47
2021/05/13 02:09:39;;;;;;;;;;;;;;;20.42;40.58;99200.84;4403328;32;19950;-47
2021/05/13 02:12:05;;;;;;;;;;;;;;;20.42;40.02;99201.72;4413498;32;20033;-49
2021/05/13 02:14:31;;;;;;;;;;;;;;;20.42;41.00;99206.16;4418373;32;20010;-51
2021/05/13 02:16:57;;;;;;;;;;;;;;;20.39;40.42;99203.53;4409261;32;19934;-50
2021/05/13 02:19:23;;;;;;;;;;;;;;;20.41;40.50;99209.69;4402925;32;20383;-48
2021/05/13 02:21:48;;;;;;;;;;;;;;;20.41;40.58;99209.69;4410523;32;20335;-50
2021/05/13 02:24:14;;;;;;;;;;;;;;;20.42;40.64;99204.38;4417835;32;20086;-51
2021/05/13 02:26:40;;;;;;;;;;;;;;;20.43;40.09;99203.47;4412680;32;19961;-47
2021/05/13 02:29:06;;;;;;;;;;;;;;;20.34;40.84;99199.13;4401837;32;19967;-43
2021/05/13 02:31:32;;;;;;;;;;;;;;;20.35;40.27;99200.03;4407902;32;20365;-48
2021/05/13 02:33:58;;;;;;;;;;;;;;;20.36;40.55;99204.41;4418817;32;20017;-45
2021/05/13 02:36:24;;;;;;;;;;;;;;;20.35;40.42;99203.53;4417456;32;19976;-48
2021/05/13 02:38:50;;;;;;;;;;;;;;;20.36;40.75;99191.19;4417738;32;20051;-47
2021/05/13 02:41:15;;;;;;;;;;;;;;;20.35;40.67;99192.09;4415744;32;20004;-49
2021/05/13 02:43:41;;;;;;;;;;;;;;;20.40;40.69;99197.34;4402949;32;20190;-48
2021/05/13 02:46:07;;;;;;;;;;;;;;;20.33;40.77;99199.16;4402980;32;20336;-46
2021/05/13 02:48:33;;;;;;;;;;;;;;;20.34;40.54;99198.25;4417422;32;19950;-49
2021/05/13 02:50:59;;;;;;;;;;;;;;;20.33;40.54;99202.66;4417710;32;19962;-46
2021/05/13 02:53:25;;;;;;;;;;;;;;;20.33;40.56;99202.66;4403591;32;20275;-48
2021/05/13 02:55:51;;;;;;;;;;;;;;;20.36;40.16;99194.69;4403216;32;19958;-51
2021/05/13 02:58:17;;;;;;;;;;;;;;;20.36;40.70;99189.41;4414657;32;19954;-49
2021/05/13 03:01:05;;;;;;;;;;;;;;;20.33;40.75;99191.22;4418182;32;19968;-47
2021/05/13 03:03:30;;;;;;;;;;;;;;;20.34;40.12;99177.13;4415340;32;19954;-48
2021/05/13 03:05:56;;;;;;;;;;;;;;;20.33;40.90;99176.22;4418100;32;19945;-47
2021/05/13 03:08:22;;;;;;;;;;;;;;;20.29;40.54;99176.25;4417529;32;20021;-50
2021/05/13 03:10:48;;;;;;;;;;;;;;;20.33;40.39;99167.44;4417835;32;20382;-48
2021/05/13 03:13:21;;;;;;;;;;;;;;;20.36;40.16;99173.53;4405738;32;20397;-49
2021/05/13 03:15:47;;;;;;;;;;;;;;;20.40;40.29;99165.63;4402382;32;19995;-47
2021/05/13 03:18:13;;;;;;;;;;;;;;;20.35;40.42;99170.94;4412436;32;20457;-48
2021/05/13 03:20:41;;;;;;;;;;;;;;;20.41;40.31;99157.66;4417851;32;19970;-47
2021/05/13 03:23:09;;;;;;;;;;;;;;;20.36;40.64;99159.47;4407671;32;20295;-51
2021/05/13 03:25:37;;;;;;;;;;;;;;;20.36;40.24;99162.13;4402242;32;19977;-44
2021/05/13 03:28:09;;;;;;;;;;;;;;;20.40;40.23;99163.84;4410058;32;20019;-50
2021/05/13 03:30:35;;;;;;;;;;;;;;;20.39;40.40;99170.00;4416946;32;19958;-47
2021/05/13 03:33:01;;;;;;;;;;;;;;;20.32;40.58;99173.59;4416124;32;19957;-49
2021/05/13 03:35:28;;;;;;;;;;;;;;;20.35;40.34;99160.34;4417575;32;19954;-44
2021/05/13 03:37:53;;;;;;;;;;;;;;;20.34;40.22;99161.25;4417103;32;20002;-47
2021/05/13 03:40:19;;;;;;;;;;;;;;;20.37;40.10;99171.81;4416878;32;19969;-47
2021/05/13 03:42:45;;;;;;;;;;;;;;;20.35;40.19;99168.28;4416430;32;20327;-47
2021/05/13 03:45:11;;;;;;;;;;;;;;;20.37;39.81;99161.22;4416830;32;20058;-47
2021/05/13 03:47:37;;;;;;;;;;;;;;;20.35;39.93;99152.44;4413219;32;19965;-53
2021/05/13 03:50:03;;;;;;;;;;;;;;;20.36;40.10;99151.53;4401750;32;20310;-43
2021/05/13 03:52:29;;;;;;;;;;;;;;;20.40;40.38;99144.47;4403633;32;19938;-47
2021/05/13 03:54:54;;;;;;;;;;;;;;;20.40;40.12;99145.31;4416802;32;19989;-47
2021/05/13 03:57:20;;;;;;;;;;;;;;;20.35;40.27;99149.78;4415840;32;19948;-48
2021/05/13 03:59:46;;;;;;;;;;;;;;;20.35;40.21;99152.44;4400913;32;19950;-47
2021/05/13 04:02:28;;;;;;;;;;;;;;;20.30;40.38;99143.62;4402617;32;20344;-46
2021/05/13 04:04:54;;;;;;;;;;;;;;;20.29;40.66;99141.88;4402452;32;19954;-47
2021/05/13 04:07:20;;;;;;;;;;;;;;;20.26;40.36;99136.62;4401767;32;20264;-46
2021/05/13 04:09:46;;;;;;;;;;;;;;;20.33;40.19;99133.06;4401560;32;19966;-49
2021/05/13 04:12:12;;;;;;;;;;;;;;;20.37;40.01;99129.50;4401339;32;19950;-48
2021/05/13 04:14:37;;;;;;;;;;;;;;;20.40;39.87;99136.53;4414536;32;20307;-48
2021/05/13 04:17:06;;;;;;;;;;;;;;;20.36;39.95;99141.81;4416838;32;19950;-48
2021/05/13 04:19:32;;;;;;;;;;;;;;;20.31;40.30;99137.44;4404160;32;19977;-49
2021/05/13 04:21:58;;;;;;;;;;;;;;;20.34;40.08;99142.75;4401703;32;19966;-46
2021/05/13 04:24:24;;;;;;;;;;;;;;;20.38;40.08;99141.81;4412299;32;20348;-48
2021/05/13 04:26:50;;;;;;;;;;;;;;;20.44;39.69;99144.44;4417069;32;19981;-47
2021/05/13 04:29:16;;;;;;;;;;;;;;;20.40;40.02;99144.47;4405589;32;20319;-51
2021/05/13 04:31:42;;;;;;;;;;;;;;;20.30;40.09;99147.16;4401293;32;19950;-49
2021/05/13 04:34:08;;;;;;;;;;;;;;;20.30;40.48;99138.34;4409739;32;20343;-45
2021/05/13 04:36:33;;;;;;;;;;;;;;;20.32;40.18;99144.53;4416121;32;19954;-47
2021/05/13 04:38:59;;;;;;;;;;;;;;;20.29;40.25;99149.81;4408715;32;19969;-49
2021/05/13 04:41:29;;;;;;;;;;;;;;;20.27;40.43;99154.25;4400971;32;20298;-47
2021/05/13 04:43:55;;;;;;;;;;;;;;;20.27;40.37;99143.66;4406684;32;20004;-49
2021/05/13 04:46:23;;;;;;;;;;;;;;;20.28;40.26;99137.47;4416102;32;19950;-47
2021/05/13 04:51:15;;;;;;;;;;;;;;;20.25;40.18;99134.88;4400736;32;19958;-48
2021/05/13 04:53:41;;;;;;;;;;;;;;;20.25;40.58;99134.88;4405222;32;19965;-47
2021/05/13 04:56:07;;;;;;;;;;;;;;;20.21;40.70;99134.91;4416314;32;19950;-48
2021/05/13 04:58:33;;;;;;;;;;;;;;;20.21;40.40;99134.91;4413002;32;19951;-44
2021/05/13 05:00:58;;;;;;;;;;;;;;;20.25;40.49;99140.16;4401275;32;20305;-46
2021/05/13 05:03:24;;;;;;;;;;;;;;;20.26;40.46;99139.25;4416024;32;19968;-49
2021/05/13 05:05:50;;;;;;;;;;;;;;;20.23;40.15;99137.50;4416000;32;19979;-46
2021/05/13 05:08:16;;;;;;;;;;;;;;;20.25;40.36;99135.75;4413994;32;19954;-47
2021/05/13 05:10:43;;;;;;;;;;;;;;;20.29;40.02;99141.88;4401525;32;19958;-47
2021/05/13 05:13:08;;;;;;;;;;;;;;;20.28;40.26;99142.78;4398325;32;19958;-47
2021/05/13 05:15:34;;;;;;;;;;;;;;;20.29;40.06;99136.59;4414675;32;20330;-49
2021/05/13 05:18:00;;;;;;;;;;;;;;;20.27;40.17;99141.03;4416202;32;19951;-49
2021/05/13 05:20:26;;;;;;;;;;;;;;;20.31;40.25;99134.81;4402922;32;20387;-48
2021/05/13 05:22:52;;;;;;;;;;;;;;;20.28;40.32;99134.84;4400087;32;19947;-48
2021/05/13 05:25:18;;;;;;;;;;;;;;;20.26;40.43;99136.62;4411399;32;20010;-48
2021/05/13 05:27:44;;;;;;;;;;;;;;;20.27;40.31;99139.28;4416305;32;19991;-44
2021/05/13 05:30:09;;;;;;;;;;;;;;;20.26;40.33;99148.09;4405187;32;19969;-49
2021/05/13 05:32:35;;;;;;;;;;;;;;;20.37;40.02;99142.72;4399952;32;19950;-47
2021/05/13 05:35:04;;;;;;;;;;;;;;;20.31;40.11;99135.69;4409100;32;19958;-48
2021/05/13 05:37:30;;;;;;;;;;;;;;;20.32;40.03;99134.81;4415383;32;19950;-49
2021/05/13 05:39:56;;;;;;;;;;;;;;;20.39;39.83;99140.06;4408713;32;19992;-48
2021/05/13 05:42:21;;;;;;;;;;;;;;;20.34;40.24;99137.47;4400604;32;19977;-50
2021/05/13 05:44:47;;;;;;;;;;;;;;;20.28;40.42;99145.41;4405145;32;19950;-50
2021/05/13 05:47:16;;;;;;;;;;;;;;;20.30;40.43;99138.34;4415080;32;19991;-47
2021/05/13 05:49:42;;;;;;;;;;;;;;;20.28;40.48;99140.13;4410932;32;19950;-46
2021/05/13 05:52:08;;;;;;;;;;;;;;;20.35;40.37;99132.13;4409754;32;20456;-46
2021/05/13 05:54:34;;;;;;;;;;;;;;;20.32;40.20;99131.31;4417844;32;19946;-50
2021/05/13 05:57:00;;;;;;;;;;;;;;;20.30;40.45;99127.78;4416805;32;20343;-51
2021/05/13 05:59:26;;;;;;;;;;;;;;;20.32;40.24;99128.66;4410367;32;20006;-50
2021/05/13 06:01:51;;;;;;;;;;;;;;;20.30;40.33;99117.19;4415599;32;19954;-46
2021/05/13 06:04:17;;;;;;;;;;;;;;;20.33;40.12;99117.19;4415989;32;19946;-50
2021/05/13 06:06:43;;;;;;;;;;;;;;;20.32;40.67;99118.09;4413796;32;20339;-50
2021/05/13 06:09:10;;;;;;;;;;;;;;;20.31;40.20;99108.38;4415860;32;19973;-47
2021/05/13 06:11:36;;;;;;;;;;;;;;;20.31;40.55;99111.00;4414904;32;19943;-49
2021/05/13 06:14:01;;;;;;;;;;;;;;;20.36;40.35;99109.22;4413576;32;19965;-49
2021/05/13 06:16:27;;;;;;;;;;;;;;;20.34;40.25;99111.03;4415268;32;22973;-48
2021/05/13 06:18:53;;;;;;;;;;;;;;;20.34;40.26;99114.53;4414373;32;19954;-51
2021/05/13 06:21:19;;;;;;;;;;;;;;;20.35;40.14;99118.06;4414549;32;19966;-48
2021/05/13 06:23:45;;;;;;;;;;;;;;;20.32;40.60;99112.81;4417599;32;20029;-50
2021/05/13 06:26:11;;;;;;;;;;;;;;;20.40;40.04;99113.59;4417985;32;19965;-50
2021/05/13 06:28:37;;;;;;;;;;;;;;;20.42;40.45;99106.53;4417052;32;19953;-49
2021/05/13 06:31:03;;;;;;;;;;;;;;;20.40;40.27;99108.31;4419044;32;20307;-47
2021/05/13 06:33:28;;;;;;;;;;;;;;;20.41;40.31;99110.06;4418320;32;19954;-47
2021/05/13 06:35:54;;;;;;;;;;;;;;;20.40;40.36;99102.16;4417185;32;19993;-49
2021/05/13 06:38:20;;;;;;;;;;;;;;;20.44;40.17;99109.16;4417603;32;19968;-48
2021/05/13 06:40:47;;;;;;;;;;;;;;;20.43;40.19;99105.62;4418057;32;19981;-52
2021/05/13 06:43:13;;;;;;;;;;;;;;;20.47;40.27;99099.44;4416422;32;19992;-48
2021/05/13 06:45:39;;;;;;;;;;;;;;;20.44;40.34;99098.59;4419116;32;19988;-49
2021/05/13 06:48:05;;;;;;;;;;;;;;;20.45;40.13;99100.34;4419452;32;19974;-52
2021/05/13 06:50:31;;;;;;;;;;;;;;;20.51;40.03;99108.25;4416102;32;20288;-49
2021/05/13 06:52:57;;;;;;;;;;;;;;;20.48;40.12;99100.31;4404772;32;20040;-51
2021/05/13 06:55:23;;;;;;;;;;;;;;;20.49;40.02;99096.78;4405749;32;20049;-46
2021/05/13 06:57:49;;;;;;;;;;;;;;;20.46;40.23;99103.00;4418972;32;20388;-52
2021/05/13 07:00:15;;;;;;;;;;;;;;;20.49;40.26;99112.62;4418176;32;20007;-49
2021/05/13 07:02:40;;;;;;;;;;;;;;;20.45;40.46;99103.88;4419297;32;19942;-52
2021/05/13 07:05:06;;;;;;;;;;;;;;;20.45;40.29;99098.59;4419174;32;19950;-54
2021/05/13 07:07:35;;;;;;;;;;;;;;;20.49;40.29;99102.97;4418855;32;19950;-53
2021/05/13 07:10:00;;;;;;;;;;;;;;;20.49;40.21;99099.41;4417124;32;19953;-46
2021/05/13 07:12:26;;;;;;;;;;;;;;;20.52;40.24;99102.06;4418537;32;19954;-50
2021/05/13 07:14:53;;;;;;;;;;;;;;;20.54;40.34;99104.66;4418875;32;20545;-49
2021/05/13 07:17:19;;;;;;;;;;;;;;;20.51;40.35;99102.97;4416553;32;19978;-47
2021/05/13 07:19:45;;;;;;;;;;;;;;;20.52;40.41;99109.09;4418673;32;19969;-48
2021/05/13 07:22:12;;;;;;;;;;;;;;;20.54;40.32;99117.91;4419136;32;19957;-47
2021/05/13 07:24:37;;;;;;;;;;;;;;;20.54;40.39;99115.25;4419136;32;19946;-51
2021/05/13 07:27:09;;;;;;;;;;;;;;;20.53;40.32;99113.50;4417560;32;19988;-49
2021/05/13 07:29:35;;;;;;;;;;;;;;;20.56;40.24;99113.47;4417346;32;20005;-51
2021/05/13 07:32:01;;;;;;;;;;;;;;;20.56;40.30;99109.06;4418225;32;19954;-48
2021/05/13 07:34:26;;;;;;;;;;;;;;;20.58;40.32;99098.50;4416624;32;20380;-52
2021/05/13 07:36:52;;;;;;;;;;;;;;;20.55;40.49;99102.03;4415680;32;19969;-49
2021/05/13 07:39:18;;;;;;;;;;;;;;;20.58;40.29;99106.41;4412617;32;19960;-47
2021/05/13 07:41:44;;;;;;;;;;;;;;;20.58;40.35;99109.06;4417064;32;19964;-49
2021/05/13 07:44:10;;;;;;;;;;;;;;;20.57;40.41;99102.03;4415105;32;19946;-49
2021/05/13 07:46:39;;;;;;;;;;;;;;;20.58;40.44;99109.06;4410165;32;20480;-47
2021/05/13 07:49:04;;;;;;;;;;;;;;;20.62;40.31;99102.84;4411926;32;20401;-46
2021/05/13 07:51:30;;;;;;;;;;;;;;;20.64;40.26;99106.34;4417453;32;19965;-50
2021/05/13 07:53:56;;;;;;;;;;;;;;;20.62;40.31;99102.84;4416053;32;19970;-50
2021/05/13 07:56:22;;;;;;;;;;;;;;;20.64;40.28;99095.78;4415461;32;20016;-49
2021/05/13 07:58:48;;;;;;;;;;;;;;;20.66;40.37;99099.28;4415776;32;20291;-51
2021/05/13 08:01:14;;;;;;;;;;;;;;;20.66;40.32;99093.13;4414867;32;19950;-53
2021/05/13 08:03:40;;;;;;;;;;;;;;;20.74;40.45;99097.44;4416868;32;19950;-52
2021/05/13 08:06:06;;;;;;;;;;;;;;;20.76;42.30;99100.94;4416365;32;19961;-55
2021/05/13 08:08:32;;;;;;;;;;;;;;;20.33;43.63;99101.34;4416504;32;19954;-54
2021/05/13 08:10:58;;;;;;;;;;;;;;;20.28;44.12;99097.84;4417772;32;19969;-54
2021/05/13 08:13:23;;;;;;;;;;;;;;;19.93;44.83;99095.41;4415528;32;19950;-55
2021/05/13 08:15:50;;;;;;;;;;;;;;;20.04;45.17;99098.00;4416163;32;19946;-53
2021/05/13 08:18:16;;;;;;;;;;;;;;;20.00;44.96;99095.38;4405096;32;20328;-54
2021/05/13 08:20:42;;;;;;;;;;;;;;;19.99;44.77;99091.00;4401529;32;19955;-53
2021/05/13 08:23:08;;;;;;;;;;;;;;;19.92;44.76;99096.31;4410860;32;19946;-51
2021/05/13 08:25:34;;;;;;;;;;;;;;;20.03;44.71;99084.78;4417089;32;19946;-55
2021/05/13 08:27:59;;;;;;;;;;;;;;;20.05;44.83;99078.63;4416645;32;20334;-54
2021/05/13 08:30:26;;;;;;;;;;;;;;;20.05;44.65;99080.38;4415707;32;19950;-54
2021/05/13 08:32:52;;;;;;;;;;;;;;;20.00;44.90;99071.59;4409870;32;19935;-54
2021/05/13 08:35:17;;;;;;;;;;;;;;;19.98;44.97;99076.03;4415356;32;19986;-53
2021/05/13 08:37:43;;;;;;;;;;;;;;;19.99;45.13;99075.12;4416173;32;19959;-52
2021/05/13 08:40:09;;;;;;;;;;;;;;;19.93;44.97;99076.91;4415299;32;20221;-53
2021/05/13 08:42:35;;;;;;;;;;;;;;;19.99;44.72;99075.12;4416118;32;20438;-51
2021/05/13 08:45:01;;;;;;;;;;;;;;;19.88;45.14;99068.12;4415542;32;19960;-54
2021/05/13 08:47:27;;;;;;;;;;;;;;;19.59;46.33;99073.56;4413253;32;20003;-52
2021/05/13 08:49:54;;;;;;;;;;;;;;;19.73;45.93;99078.78;4413248;32;20330;-54
2021/05/13 08:52:21;;;;;;;;;;;;;;;19.92;45.28;99071.63;4408325;32;19958;-55
2021/05/13 08:54:47;;;;;;;;;;;;;;;19.92;45.94;99069.88;4408876;32;19969;-55
2021/05/13 08:57:13;;;;;;;;;;;;;;;20.06;45.30;99066.25;4399602;32;20271;-54
2021/05/13 08:59:39;;;;;;;;;;;;;;;20.11;44.90;99064.47;4412020;32;19958;-50
2021/05/13 09:02:05;;;;;;;;;;;;;;;20.05;45.07;99059.22;4399178;32;20003;-54
2021/05/13 09:04:31;;;;;;;;;;;;;;;19.40;47.91;99064.84;4409360;32;19954;-55
2021/05/13 09:06:58;;;;;;;;;;;;;;;19.21;48.81;99064.94;4403735;32;20028;-54
2021/05/13 09:09:24;;;;;;;;;;;;;;;19.49;46.95;99054.25;4406118;32;20009;-54
2021/05/13 09:11:50;;;;;;;;;;;;;;;19.17;47.11;99047.34;4409193;32;20267;-54
2021/05/13 09:14:16;;;;;;;;;;;;;;;19.17;47.42;99057.91;4401942;32;19999;-54
2021/05/13 09:16:47;;;;;;;;;;;;;;;19.07;47.82;99047.38;4407390;32;19958;-56
2021/05/13 09:19:13;;;;;;;;;;;;;;;19.36;47.11;99050.78;4410929;32;20013;-52
2021/05/13 09:21:39;;;;;;;;;;;;;;;19.12;47.35;99049.13;4406980;32;19956;-55
2021/05/13 09:24:05;;;;;;;;;;;;;;;19.24;46.67;99051.72;4403981;32;19946;-55
2021/05/13 09:26:32;;;;;;;;;;;;;;;19.64;45.12;99045.41;4407833;32;20028;-55
2021/05/13 09:28:59;;;;;;;;;;;;;;;19.92;44.07;99038.19;4408253;32;19962;-53
2021/05/13 09:31:25;;;;;;;;;;;;;;;19.82;44.42;99041.75;4409508;32;19984;-55
2021/05/13 09:33:51;;;;;;;;;;;;;;;19.71;44.65;99036.53;4405043;32;19971;-55
2021/05/13 09:36:17;;;;;;;;;;;;;;;19.79;43.69;99034.72;4407655;32;19955;-55
2021/05/13 09:38:43;;;;;;;;;;;;;;;19.96;43.55;99035.53;4406212;32;19942;-52
2021/05/13 09:41:09;;;;;;;;;;;;;;;19.48;42.74;99036.66;4401816;32;19980;-55
2021/05/13 09:43:35;;;;;;;;;;;;;;;19.51;42.76;99034.00;4406869;32;19958;-55
2021/05/13 09:46:01;;;;;;;;;;;;;;;19.58;42.43;99029.56;4407462;32;20106;-56
2021/05/13 09:48:27;;;;;;;;;;;;;;;19.72;42.59;99026.84;4405378;32;19993;-54
2021/05/13 09:50:53;;;;;;;;;;;;;;;19.05;41.04;99021.91;4409323;32;19991;-54
2021/05/13 09:53:19;;;;;;;;;;;;;;;19.14;41.48;99021.88;4402402;32;19956;-54
2021/05/13 09:55:45;;;;;;;;;;;;;;;19.56;39.86;99020.78;4402812;32;19989;-54
2021/05/13 09:58:11;;;;;;;;;;;;;;;19.23;40.51;99015.66;4406175;32;19985;-51
2021/05/13 10:00:37;;;;;;;;;;;;;;;19.28;40.40;99019.16;4411544;32;20014;-53
2021/05/13 10:03:04;;;;;;;;;;;;;;;19.22;39.76;99011.28;4409800;32;20375;-49
2021/05/13 10:05:30;;;;;;;;;;;;;;;19.24;39.89;99020.06;4409551;32;19961;-54
2021/05/13 10:07:56;;;;;;;;;;;;;;;18.96;39.35;99007.81;4406502;32;19954;-55
2021/05/13 10:10:22;;;;;;;;;;;;;;;19.18;39.15;99007.78;4405513;32;20033;-52
2021/05/13 10:12:48;;;;;;;;;;;;;;;19.08;39.30;99006.06;4405832;32;19954;-55
2021/05/13 10:15:14;;;;;;;;;;;;;;;18.71;39.71;99007.03;4407593;32;19955;-55
2021/05/13 10:17:40;;;;;;;;;;;;;;;18.70;40.50;99002.59;4412445;32;19993;-56
2021/05/13 10:20:05;;;;;;;;;;;;;;;19.35;39.92;99007.69;4411963;32;19950;-54
2021/05/13 10:22:31;;;;;;;;;;;;;;;18.90;40.99;98997.31;4416155;32;19972;-56
2021/05/13 10:24:57;;;;;;;;;;;;;;;18.87;40.85;98991.16;4408268;32;20360;-55
2021/05/13 10:27:23;;;;;;;;;;;;;;;19.40;40.37;98996.22;4407192;32;19969;-56
2021/05/13 10:29:49;;;;;;;;;;;;;;;19.02;40.36;98993.75;4408648;32;19954;-55
2021/05/13 10:32:20;;;;;;;;;;;;;;;19.06;40.61;98987.56;4410425;32;19968;-56
2021/05/13 10:34:46;;;;;;;;;;;;;;;19.22;40.59;98979.63;4410395;32;20003;-53
2021/05/13 10:37:12;;;;;;;;;;;;;;;19.77;39.65;98980.13;4418036;32;20339;-55
2021/05/13 10:39:38;;;;;;;;;;;;;;;19.44;39.73;98982.09;4418184;32;20274;-55
2021/05/13 10:42:04;;;;;;;;;;;;;;;18.94;40.54;98982.31;4418804;32;19965;-55
2021/05/13 10:44:29;;;;;;;;;;;;;;;18.74;40.41;98980.66;4414780;32;19992;-54
2021/05/13 10:46:56;;;;;;;;;;;;;;;19.59;39.36;98974.13;4404069;32;19958;-56
2021/05/13 10:49:21;;;;;;;;;;;;;;;19.82;39.06;98967.78;4405545;32;19976;-57
2021/05/13 10:51:47;;;;;;;;;;;;;;;19.46;39.56;98970.66;4419028;32;19954;-56
2021/05/13 10:54:13;;;;;;;;;;;;;;;19.43;39.51;98972.44;4412771;32;19959;-57
2021/05/13 10:56:39;;;;;;;;;;;;;;;20.11;37.88;98969.34;4417875;32;19954;-56
2021/05/13 10:59:07;;;;;;;;;;;;;;;20.14;37.14;98966.66;4416209;32;20366;-58
2021/05/13 11:01:33;;;;;;;;;;;;;;;20.19;37.37;98962.22;4414180;32;19977;-58
2021/05/13 11:03:58;;;;;;;;;;;;;;;19.74;37.55;98959.91;4417962;32;19995;-57
2021/05/13 11:06:24;;;;;;;;;;;;;;;19.94;37.28;98951.88;4418244;32;19962;-57
2021/05/13 11:08:50;;;;;;;;;;;;;;;20.12;36.65;98949.06;4402357;32;19955;-57
2021/05/13 11:11:16;;;;;;;;;;;;;;;19.58;36.45;98953.88;4416905;32;20350;-57
2021/05/13 11:13:42;;;;;;;;;;;;;;;19.45;37.38;98954.84;4417501;32;19987;-57
2021/05/13 11:16:08;;;;;;;;;;;;;;;19.27;37.82;98951.41;4418362;32;19958;-54
2021/05/13 11:18:34;;;;;;;;;;;;;;;19.19;38.42;98950.56;4417957;32;19950;-57
2021/05/13 11:21:00;;;;;;;;;;;;;;;20.04;38.09;98963.22;4417492;32;19962;-57
2021/05/13 11:23:26;;;;;;;;;;;;;;;20.24;37.22;98950.72;4416201;32;19964;-57
2021/05/13 11:25:52;;;;;;;;;;;;;;;20.31;36.64;98947.09;4418211;32;19958;-57
2021/05/13 11:28:18;;;;;;;;;;;;;;;20.40;37.23;98949.66;4417510;32;19958;-57
2021/05/13 11:30:44;;;;;;;;;;;;;;;20.21;37.47;98955.16;4417276;32;19991;-56
2021/05/13 11:33:10;;;;;;;;;;;;;;;20.41;37.43;98943.47;4416994;32;19970;-56
2021/05/13 11:35:37;;;;;;;;;;;;;;;20.75;36.99;98950.19;4417832;32;19988;-57
2021/05/13 11:38:03;;;;;;;;;;;;;;;20.50;36.75;98946.03;4416604;32;19990;-55
2021/05/13 11:40:29;;;;;;;;;;;;;;;20.58;36.58;98945.09;4417990;32;19988;-57
2021/05/13 11:42:55;;;;;;;;;;;;;;;20.28;37.06;98949.78;4416930;32;20026;-58
2021/05/13 11:45:20;;;;;;;;;;;;;;;20.06;36.11;98944.69;4417350;32;19954;-56
2021/05/13 11:47:46;;;;;;;;;;;;;;;20.26;35.10;98946.28;4415304;32;19982;-53
2021/05/13 11:50:12;;;;;;;;;;;;;;;20.64;35.00;98947.66;4417981;32;20347;-56
2021/05/13 11:52:38;;;;;;;;;;;;;;;20.88;34.67;98940.34;4418305;32;20029;-56
2021/05/13 11:55:04;;;;;;;;;;;;;;;20.90;35.13;98943.84;4417511;32;19954;-54
2021/05/13 11:57:30;;;;;;;;;;;;;;;20.96;35.57;98932.31;4419122;32;20065;-55
2021/05/13 11:59:57;;;;;;;;;;;;;;;21.03;36.14;98931.34;4417293;32;19957;-57
2021/05/13 12:02:23;;;;;;;;;;;;;;;21.04;36.18;98927.81;4417368;32;20111;-56
2021/05/13 12:04:49;;;;;;;;;;;;;;;21.05;36.42;98926.91;4418290;32;19991;-56
2021/05/13 12:07:15;;;;;;;;;;;;;;;21.08;36.50;98923.34;4417658;32;19985;-56
2021/05/13 12:09:41;;;;;;;;;;;;;;;21.11;36.59;98924.16;4415572;32;19994;-56
2021/05/13 12:12:07;;;;;;;;;;;;;;;21.14;36.75;98921.50;4417883;32;19938;-57
2021/05/13 12:14:33;;;;;;;;;;;;;;;21.18;36.75;98912.59;4418477;32;19956;-56
2021/05/13 12:16:58;;;;;;;;;;;;;;;21.19;36.83;98914.34;4418298;32;19947;-54
2021/05/13 12:19:24;;;;;;;;;;;;;;;21.23;36.96;98914.28;4416756;32;20355;-57
2021/05/13 12:21:50;;;;;;;;;;;;;;;21.27;36.95;98921.31;4418231;32;20009;-57
2021/05/13 12:24:16;;;;;;;;;;;;;;;21.27;37.07;98918.66;4418104;32;20003;-56
2021/05/13 12:26:42;;;;;;;;;;;;;;;21.28;37.16;98915.97;4418727;32;19992;-56
2021/05/13 12:29:08;;;;;;;;;;;;;;;21.29;37.18;98907.12;4416827;32;19966;-57
2021/05/13 12:31:34;;;;;;;;;;;;;;;21.31;37.23;98912.41;4418488;32;19958;-57
2021/05/13 12:34:03;;;;;;;;;;;;;;;21.30;37.30;98905.38;4417977;32;19962;-57
2021/05/13 12:36:29;;;;;;;;;;;;;;;21.31;37.33;98905.38;4417752;32;20316;-57
2021/05/13 12:38:55;;;;;;;;;;;;;;;21.33;37.28;98900.91;4417452;32;19998;-56
2021/05/13 12:41:25;;;;;;;;;;;;;;;21.33;37.47;98900.91;4418566;32;19999;-56
2021/05/13 12:43:51;;;;;;;;;;;;;;;21.36;37.33;98896.47;4418040;32;19954;-57
2021/05/13 12:46:17;;;;;;;;;;;;;;;21.35;37.57;98906.16;4415071;32;19982;-58
2021/05/13 12:48:43;;;;;;;;;;;;;;;21.41;37.33;98903.44;4401784;32;19987;-58
2021/05/13 12:51:09;;;;;;;;;;;;;;;21.41;37.39;98907.84;4403755;32;20345;-57